Time;durP1;ratioP1;P1;durP2;ratioP2;P2;SDS_P1;SDS_P2;PMS_P1;PMS_P2;Temp;Humidity;BMP_temperature;BMP_pressure;BME280_temperature;BME280_humidity;BME280_pressure;Samples;Min_cycle;Max_cycle;Signal;HPM_P1;HPM_P2
2023/02/24 00:01:36;;;;;;;;;;;;;;;12.45;49.41;99183.00;4977616;28;19925;-76
2023/02/24 00:04:01;;;;;;;;;;;;;;;12.46;49.49;99189.88;4978760;28;19926;-75
2023/02/24 00:06:35;;;;;;;;;;;;;;;12.46;49.15;99180.25;4977652;28;20008;-75
2023/02/24 00:09:08;;;;;;;;;;;;;;;12.47;49.22;99181.91;4979219;28;19921;-75
2023/02/24 00:11:43;;;;;;;;;;;;;;;12.47;49.28;99178.47;4977696;28;19968;-75
2023/02/24 00:14:11;;;;;;;;;;;;;;;12.46;49.11;99172.41;4961132;28;20431;-75
2023/02/24 00:16:36;;;;;;;;;;;;;;;12.46;49.29;99171.56;4978043;28;20004;-75
2023/02/24 00:19:02;;;;;;;;;;;;;;;12.46;49.42;99176.78;4977373;28;19969;-74
2023/02/24 00:21:28;;;;;;;;;;;;;;;12.47;49.16;99168.00;4968893;28;20381;-75
2023/02/24 00:23:53;;;;;;;;;;;;;;;12.46;49.27;99164.56;4958206;28;19918;-75
2023/02/24 00:26:18;;;;;;;;;;;;;;;12.46;49.58;99161.06;4967359;28;19925;-75
2023/02/24 00:28:44;;;;;;;;;;;;;;;12.45;49.20;99159.44;4960078;28;19922;-73
2023/02/24 00:31:12;;;;;;;;;;;;;;;12.44;49.30;99169.06;4948457;28;19914;-75
2023/02/24 00:33:38;;;;;;;;;;;;;;;12.43;49.42;99164.78;4942058;28;19918;-75
2023/02/24 00:36:11;;;;;;;;;;;;;;;12.43;49.24;99166.56;4957417;28;19921;-75
2023/02/24 00:38:36;;;;;;;;;;;;;;;12.43;49.30;99163.94;4957828;28;20009;-74
2023/02/24 00:41:11;;;;;;;;;;;;;;;12.41;49.43;99156.22;4957688;28;19952;-76
2023/02/24 00:43:37;;;;;;;;;;;;;;;12.40;49.25;99156.34;4942279;28;19918;-75
2023/02/24 00:46:09;;;;;;;;;;;;;;;12.37;49.29;99144.31;4976860;28;19969;-74
2023/02/24 00:48:39;;;;;;;;;;;;;;;12.34;49.36;99134.06;4977579;28;19918;-75
2023/02/24 00:51:06;;;;;;;;;;;;;;;12.29;49.45;99138.84;4994069;28;20012;-75
2023/02/24 00:53:32;;;;;;;;;;;;;;;12.27;49.56;99127.63;4960691;28;20012;-75
2023/02/24 00:55:58;;;;;;;;;;;;;;;12.23;49.43;99129.66;4976439;28;20012;-74
2023/02/24 00:58:28;;;;;;;;;;;;;;;12.21;49.69;99120.28;4977027;28;20012;-74
2023/02/24 01:00:54;;;;;;;;;;;;;;;12.18;49.66;99126.56;4961093;28;19922;-75
2023/02/24 01:03:20;;;;;;;;;;;;;;;12.17;49.99;99116.22;4960030;28;19929;-73
2023/02/24 01:05:45;;;;;;;;;;;;;;;12.15;49.76;99112.91;4976601;28;20412;-73
2023/02/24 01:08:10;;;;;;;;;;;;;;;12.15;50.09;99115.50;4993785;28;19918;-73
2023/02/24 01:10:36;;;;;;;;;;;;;;;12.12;50.04;99108.72;4948415;28;19926;-73
2023/02/24 01:13:01;;;;;;;;;;;;;;;12.11;49.79;99110.50;4957014;28;20034;-74
2023/02/24 01:15:27;;;;;;;;;;;;;;;12.10;50.17;99110.63;4957168;28;20374;-74
2023/02/24 01:17:52;;;;;;;;;;;;;;;12.09;49.85;99107.16;4956765;28;19944;-74
2023/02/24 01:20:17;;;;;;;;;;;;;;;12.10;49.76;99108.00;4957110;28;19925;-75
2023/02/24 01:22:43;;;;;;;;;;;;;;;12.08;49.75;99100.28;4956844;28;19925;-75
2023/02/24 01:25:09;;;;;;;;;;;;;;;12.07;49.90;99098.59;4972407;28;19918;-74
2023/02/24 01:27:39;;;;;;;;;;;;;;;12.08;50.15;99091.56;4956548;28;19925;-74
2023/02/24 01:30:05;;;;;;;;;;;;;;;12.09;52.44;99096.69;4972690;28;19922;-71
2023/02/24 01:32:30;;;;;;;;;;;;;;;12.94;68.96;99102.34;4956831;28;19918;-71
2023/02/24 01:34:56;;;;;;;;;;;;;;;12.88;60.77;99100.22;4956738;28;19925;-76
2023/02/24 01:37:21;;;;;;;;;;;;;;;12.71;58.34;99097.13;4973074;28;19945;-74
2023/02/24 01:39:46;;;;;;;;;;;;;;;12.62;58.93;99097.88;4975849;28;19918;-76
2023/02/24 01:42:15;;;;;;;;;;;;;;;12.53;59.06;99094.19;4976151;28;19957;-76
2023/02/24 01:44:42;;;;;;;;;;;;;;;12.43;58.66;99091.47;4976231;28;19918;-76
2023/02/24 01:47:07;;;;;;;;;;;;;;;12.35;58.09;99093.88;4992709;28;20383;-76
2023/02/24 01:49:49;;;;;;;;;;;;;;;12.27;58.11;99093.59;4975706;28;19953;-76
2023/02/24 01:52:16;;;;;;;;;;;;;;;12.19;57.84;99090.75;4975890;28;19941;-76
2023/02/24 01:54:46;;;;;;;;;;;;;;;12.15;57.89;99091.97;4993609;28;19968;-77
2023/02/24 01:57:15;;;;;;;;;;;;;;;12.10;58.41;99094.94;4975906;28;19961;-76
2023/02/24 01:59:40;;;;;;;;;;;;;;;12.05;58.19;99097.91;4976251;28;19922;-75
2023/02/24 02:02:06;;;;;;;;;;;;;;;12.02;57.66;99094.66;4975536;28;19928;-76
2023/02/24 02:04:42;;;;;;;;;;;;;;;11.98;57.46;99088.00;4975754;28;20303;-76
2023/02/24 02:07:11;;;;;;;;;;;;;;;11.96;57.88;99088.13;4975689;28;20403;-76
2023/02/24 02:09:37;;;;;;;;;;;;;;;11.94;57.86;99090.03;4993607;28;19976;-76
2023/02/24 02:12:02;;;;;;;;;;;;;;;11.90;58.38;99086.78;4976013;28;19918;-76
2023/02/24 02:14:28;;;;;;;;;;;;;;;11.87;57.97;99091.41;4975491;28;20016;-76
2023/02/24 02:17:02;;;;;;;;;;;;;;;11.84;58.04;99092.47;4975687;28;20347;-77
2023/02/24 02:19:28;;;;;;;;;;;;;;;11.83;58.17;99095.19;4993126;28;19989;-76
2023/02/24 02:22:04;;;;;;;;;;;;;;;11.81;57.95;99091.88;4993075;28;20408;-76
2023/02/24 02:24:33;;;;;;;;;;;;;;;11.80;58.14;99080.59;4975838;28;19929;-76
2023/02/24 02:27:19;;;;;;;;;;;;;;;11.79;58.33;99075.47;4993165;28;19926;-76
2023/02/24 02:29:45;;;;;;;;;;;;;;;11.77;57.95;99079.03;4991710;28;19922;-76
2023/02/24 02:32:22;;;;;;;;;;;;;;;11.76;58.12;99081.75;5005191;28;19921;-76
2023/02/24 02:34:56;;;;;;;;;;;;;;;11.74;57.70;99084.50;4995272;28;19922;-77
2023/02/24 02:37:24;;;;;;;;;;;;;;;11.73;57.97;99076.75;4994741;28;20285;-76
2023/02/24 02:40:00;;;;;;;;;;;;;;;11.71;57.88;99082.09;4978669;28;19944;-76
2023/02/24 02:42:35;;;;;;;;;;;;;;;11.72;57.38;99080.34;4978701;28;19918;-76
2023/02/24 02:45:03;;;;;;;;;;;;;;;11.70;57.67;99080.47;5012488;28;19917;-76
2023/02/24 02:47:42;;;;;;;;;;;;;;;11.69;57.84;99075.34;5012257;28;19972;-76
2023/02/24 02:50:10;;;;;;;;;;;;;;;11.69;57.92;99073.56;4978729;28;20345;-76
2023/02/24 02:52:39;;;;;;;;;;;;;;;11.68;58.02;99076.28;4995054;28;19937;-76
2023/02/24 02:55:06;;;;;;;;;;;;;;;11.68;58.14;99077.09;4959105;28;19918;-77
2023/02/24 02:57:32;;;;;;;;;;;;;;;11.66;57.77;99071.16;4975318;28;19940;-76
2023/02/24 03:00:20;;;;;;;;;;;;;;;11.67;57.99;99072.00;4978114;28;20001;-76
2023/02/24 03:02:46;;;;;;;;;;;;;;;11.67;57.67;99069.38;4980325;28;20407;-76
2023/02/24 03:05:16;;;;;;;;;;;;;;;11.65;57.75;99064.25;4961974;28;19926;-76
2023/02/24 03:07:44;;;;;;;;;;;;;;;11.65;57.89;99081.75;4948355;28;19918;-75
2023/02/24 03:10:16;;;;;;;;;;;;;;;11.64;57.92;99067.84;4959935;28;20428;-78
2023/02/24 03:12:41;;;;;;;;;;;;;;;11.62;57.86;99064.50;4979835;28;19956;-77
2023/02/24 03:15:08;;;;;;;;;;;;;;;11.63;57.78;99073.19;4978764;28;20300;-77
2023/02/24 03:17:35;;;;;;;;;;;;;;;11.62;57.54;99071.50;4978404;28;19976;-77
2023/02/24 03:20:15;;;;;;;;;;;;;;;11.63;58.19;99073.19;4962428;28;19922;-76
2023/02/24 03:22:51;;;;;;;;;;;;;;;11.60;57.82;99061.16;4963685;28;19922;-76
2023/02/24 03:25:23;;;;;;;;;;;;;;;11.61;58.18;99070.69;4962287;28;19921;-76
2023/02/24 03:27:49;;;;;;;;;;;;;;;11.61;57.91;99057.63;4962214;28;19917;-76
2023/02/24 03:30:16;;;;;;;;;;;;;;;11.61;58.23;99064.59;4962572;28;19925;-76
2023/02/24 03:32:49;;;;;;;;;;;;;;;11.59;57.90;99060.34;4978608;28;19918;-76
2023/02/24 03:35:16;;;;;;;;;;;;;;;11.57;58.11;99059.63;4978343;28;20384;-76
2023/02/24 03:37:41;;;;;;;;;;;;;;;11.58;58.07;99056.06;4962129;28;20373;-76
2023/02/24 03:40:10;;;;;;;;;;;;;;;11.59;58.01;99051.66;4978076;28;19972;-75
2023/02/24 03:42:37;;;;;;;;;;;;;;;11.58;58.19;99045.59;4962220;28;19922;-76
2023/02/24 03:45:05;;;;;;;;;;;;;;;11.57;58.41;99050.94;4978259;28;20020;-76
2023/02/24 03:47:30;;;;;;;;;;;;;;;11.57;57.69;99050.94;4961549;28;19921;-76
2023/02/24 03:49:55;;;;;;;;;;;;;;;11.57;57.92;99041.34;4978608;28;19972;-76
2023/02/24 03:52:21;;;;;;;;;;;;;;;11.56;58.19;99044.06;4977819;28;19918;-76
2023/02/24 03:54:59;;;;;;;;;;;;;;;11.55;58.06;99037.16;4995331;28;19924;-77
2023/02/24 03:57:35;;;;;;;;;;;;;;;11.54;57.93;99036.34;4962247;28;19925;-76
2023/02/24 04:00:21;;;;;;;;;;;;;;;11.54;58.05;99031.09;4978362;28;19922;-77
2023/02/24 04:02:48;;;;;;;;;;;;;;;11.54;57.89;99030.25;4963040;28;19921;-77
2023/02/24 04:05:14;;;;;;;;;;;;;;;11.53;58.10;99026.81;4961618;28;19958;-76
2023/02/24 04:07:43;;;;;;;;;;;;;;;11.53;58.20;99031.22;4961494;28;19941;-75
2023/02/24 04:10:09;;;;;;;;;;;;;;;11.54;57.35;99028.50;4960944;28;19918;-76
2023/02/24 04:12:41;;;;;;;;;;;;;;;11.53;58.16;99029.44;4977355;28;19968;-76
2023/02/24 04:15:07;;;;;;;;;;;;;;;11.52;58.12;99019.09;4961834;28;20377;-76
2023/02/24 04:18:02;;;;;;;;;;;;;;;11.52;57.74;99032.97;4977554;28;20009;-77
2023/02/24 04:20:29;;;;;;;;;;;;;;;11.54;58.01;99027.63;4934534;29;19926;-76
2023/02/24 04:22:56;;;;;;;;;;;;;;;11.51;57.66;99020.03;4934793;29;19919;-76
2023/02/24 04:25:25;;;;;;;;;;;;;;;11.52;57.74;99022.53;4939766;29;20326;-76
2023/02/24 04:27:57;;;;;;;;;;;;;;;11.52;58.08;99016.47;4938128;29;19918;-76
2023/02/24 04:30:23;;;;;;;;;;;;;;;11.52;57.81;99019.91;4937356;29;20009;-76
2023/02/24 04:32:48;;;;;;;;;;;;;;;11.52;57.87;99022.53;4938102;29;20370;-76
2023/02/24 04:35:14;;;;;;;;;;;;;;;11.51;57.94;99010.41;4937727;29;19918;-75
2023/02/24 04:37:43;;;;;;;;;;;;;;;11.51;57.75;99013.03;4937853;29;19923;-74
2023/02/24 04:40:12;;;;;;;;;;;;;;;11.52;57.72;99004.22;4938264;29;19926;-76
2023/02/24 04:42:45;;;;;;;;;;;;;;;11.57;60.81;99007.34;4938066;29;19923;-79
2023/02/24 04:45:23;;;;;;;;;;;;;;;11.59;59.45;99002.81;4938756;29;19919;-80
2023/02/24 04:47:50;;;;;;;;;;;;;;;11.59;59.11;98999.34;4953676;28;20453;-78
2023/02/24 04:50:24;;;;;;;;;;;;;;;11.59;58.36;99002.81;4937814;29;19941;-74
2023/02/24 04:52:50;;;;;;;;;;;;;;;11.58;58.12;99001.16;4938422;29;19945;-79
2023/02/24 04:55:16;;;;;;;;;;;;;;;11.57;58.09;98999.50;4937254;29;19918;-76
2023/02/24 04:57:44;;;;;;;;;;;;;;;11.66;61.48;98999.75;4988070;28;19918;-76
2023/02/24 05:00:19;;;;;;;;;;;;;;;11.67;60.45;98991.78;4977239;28;19929;-75
2023/02/24 05:02:44;;;;;;;;;;;;;;;11.68;59.61;98985.56;4977864;28;20388;-76
2023/02/24 05:05:10;;;;;;;;;;;;;;;11.68;59.16;98992.59;4976738;28;19976;-77
2023/02/24 05:07:35;;;;;;;;;;;;;;;11.67;58.72;98990.94;4957664;28;20389;-77
2023/02/24 05:10:01;;;;;;;;;;;;;;;11.66;58.64;98994.50;4957252;28;19922;-77
2023/02/24 05:12:28;;;;;;;;;;;;;;;11.66;58.55;98994.50;4941211;28;19961;-77
2023/02/24 05:14:53;;;;;;;;;;;;;;;11.68;58.18;99006.50;4957376;28;19925;-79
2023/02/24 05:17:18;;;;;;;;;;;;;;;11.67;58.34;99004.84;4957042;28;20084;-77
2023/02/24 05:22:28;;;;;;;;;;;;;;;11.66;58.30;99000.56;4973141;28;19925;-76
2023/02/24 05:24:55;;;;;;;;;;;;;;;11.67;58.37;98998.78;4957551;28;20309;-77
2023/02/24 05:27:21;;;;;;;;;;;;;;;11.68;57.67;99005.69;4974238;28;19918;-77
2023/02/24 05:29:47;;;;;;;;;;;;;;;11.67;58.06;98991.78;4957009;28;19925;-78
2023/02/24 05:32:15;;;;;;;;;;;;;;;11.66;57.71;98995.34;4974096;28;19922;-79
2023/02/24 05:34:41;;;;;;;;;;;;;;;11.68;57.84;98992.59;4974164;28;19918;-76
2023/02/24 05:37:09;;;;;;;;;;;;;;;11.74;58.70;98994.75;4961743;28;19925;-74
2023/02/24 05:39:35;;;;;;;;;;;;;;;11.68;54.17;98993.41;4960556;28;19918;-74
2023/02/24 05:42:05;;;;;;;;;;;;;;;11.51;52.86;98999.09;4945836;28;19949;-73
2023/02/24 05:44:30;;;;;;;;;;;;;;;11.40;53.03;98998.16;4965852;28;19957;-74
2023/02/24 05:46:58;;;;;;;;;;;;;;;11.31;53.10;98996.22;4948011;28;20004;-75
2023/02/24 05:49:30;;;;;;;;;;;;;;;11.25;54.59;98999.31;4959914;28;19941;-77
2023/02/24 05:51:56;;;;;;;;;;;;;;;11.22;53.90;98996.91;4957082;28;19922;-77
2023/02/24 05:54:29;;;;;;;;;;;;;;;11.28;57.22;99006.91;4973964;28;20000;-75
2023/02/24 05:56:58;;;;;;;;;;;;;;;11.37;58.30;98997.56;4940455;28;19925;-74
2023/02/24 05:59:24;;;;;;;;;;;;;;;11.44;58.39;99000.53;4940770;28;19925;-75
2023/02/24 06:01:52;;;;;;;;;;;;;;;11.50;58.23;99006.13;4956141;28;19922;-75
2023/02/24 06:04:37;;;;;;;;;;;;;;;11.68;61.63;99005.69;4940472;28;19922;-75
2023/02/24 06:07:03;;;;;;;;;;;;;;;12.25;73.47;99002.13;5000237;28;20025;-74
2023/02/24 06:09:28;;;;;;;;;;;;;;;12.39;69.71;99008.88;4980171;28;19933;-76
2023/02/24 06:11:53;;;;;;;;;;;;;;;12.60;67.48;99005.50;4979273;28;19913;-73
2023/02/24 06:14:21;;;;;;;;;;;;;;;12.59;63.48;99006.47;4995155;28;19921;-75
2023/02/24 06:16:47;;;;;;;;;;;;;;;12.58;63.28;99004.81;4994982;28;19923;-76
2023/02/24 06:19:12;;;;;;;;;;;;;;;12.61;65.69;99005.38;4979570;28;19922;-77
2023/02/24 06:21:40;;;;;;;;;;;;;;;12.62;63.83;98996.56;4959799;28;19925;-77
2023/02/24 06:24:06;;;;;;;;;;;;;;;12.61;62.91;98999.31;4959662;28;19924;-78
2023/02/24 06:26:35;;;;;;;;;;;;;;;12.57;62.40;98995.28;4958939;28;19924;-74
2023/02/24 06:29:01;;;;;;;;;;;;;;;12.54;61.35;98995.50;4975965;28;19917;-74
2023/02/24 06:31:26;;;;;;;;;;;;;;;12.52;61.13;98994.81;4959404;28;19918;-73
2023/02/24 06:33:55;;;;;;;;;;;;;;;12.49;60.44;98999.34;4960161;28;19917;-73
2023/02/24 06:36:20;;;;;;;;;;;;;;;12.48;59.96;98996.84;4963564;28;19922;-73
2023/02/24 06:38:45;;;;;;;;;;;;;;;12.46;60.15;98999.59;4963348;28;19925;-73
2023/02/24 06:41:11;;;;;;;;;;;;;;;12.45;59.25;98991.88;4963091;28;19925;-73
2023/02/24 06:43:37;;;;;;;;;;;;;;;12.42;59.51;98992.94;4978822;28;19922;-73
2023/02/24 06:46:04;;;;;;;;;;;;;;;12.41;59.02;98993.06;4975499;28;19924;-73
2023/02/24 06:48:30;;;;;;;;;;;;;;;12.42;60.92;98990.31;4967460;28;19976;-74
2023/02/24 06:50:59;;;;;;;;;;;;;;;12.45;60.43;98987.44;4968484;28;19922;-73
2023/02/24 06:53:25;;;;;;;;;;;;;;;12.46;59.50;98988.28;4984769;28;19961;-74
2023/02/24 06:55:50;;;;;;;;;;;;;;;12.46;59.39;98986.50;4981100;28;20000;-74
2023/02/24 06:58:19;;;;;;;;;;;;;;;12.46;58.62;98983.88;4964347;28;20457;-75
2023/02/24 07:00:55;;;;;;;;;;;;;;;12.46;58.23;98989.13;4947906;28;20044;-75
2023/02/24 07:03:23;;;;;;;;;;;;;;;12.46;58.07;98985.66;4964624;28;20365;-74
2023/02/24 07:06:18;;;;;;;;;;;;;;;12.50;57.92;98979.22;4949098;28;19917;-74
2023/02/24 07:08:40;;;;;;;;;;;;;;;12.53;57.45;98978.16;4972671;28;19953;-76
2023/02/24 07:11:06;;;;;;;;;;;;;;;12.57;56.48;98975.19;4968728;28;20397;-74
2023/02/24 07:13:32;;;;;;;;;;;;;;;12.60;56.59;98967.06;4973486;28;19930;-75
2023/02/24 07:15:59;;;;;;;;;;;;;;;12.62;55.93;98967.78;4957387;28;19960;-73
2023/02/24 07:18:25;;;;;;;;;;;;;;;12.63;55.49;98965.97;4957274;28;19921;-74
2023/02/24 07:20:50;;;;;;;;;;;;;;;12.66;55.42;98969.16;4973558;28;19957;-74
2023/02/24 07:23:16;;;;;;;;;;;;;;;12.69;55.27;98959.41;4972933;28;19957;-76
2023/02/24 07:25:42;;;;;;;;;;;;;;;12.70;54.88;98958.44;4990850;28;19917;-75
2023/02/24 07:28:08;;;;;;;;;;;;;;;12.72;54.77;98948.69;4956794;28;19922;-74
2023/02/24 07:30:33;;;;;;;;;;;;;;;12.79;54.49;98947.22;4957261;28;20294;-74
2023/02/24 07:32:59;;;;;;;;;;;;;;;12.81;54.35;98951.38;4968541;28;20041;-76
2023/02/24 07:35:24;;;;;;;;;;;;;;;12.82;54.70;98952.19;4971134;28;19995;-73
2023/02/24 07:37:50;;;;;;;;;;;;;;;12.84;54.32;98942.44;4966715;28;19937;-76
2023/02/24 07:40:16;;;;;;;;;;;;;;;12.86;54.12;98940.53;4966311;28;19922;-73
2023/02/24 07:42:42;;;;;;;;;;;;;;;12.91;53.48;98948.00;4967373;28;20419;-75
2023/02/24 07:45:07;;;;;;;;;;;;;;;12.96;53.75;98944.03;4984090;28;19919;-74
2023/02/24 07:47:34;;;;;;;;;;;;;;;13.04;53.45;98938.16;4982754;28;19922;-74
2023/02/24 07:50:01;;;;;;;;;;;;;;;13.12;53.65;98938.34;4960664;28;19922;-74
2023/02/24 07:52:27;;;;;;;;;;;;;;;13.24;53.48;98933.88;4941302;28;20064;-74
2023/02/24 07:54:53;;;;;;;;;;;;;;;13.37;52.98;98938.94;4958061;28;20012;-74
2023/02/24 07:57:19;;;;;;;;;;;;;;;13.52;52.61;98942.91;4974616;28;20414;-74
2023/02/24 07:59:45;;;;;;;;;;;;;;;13.65;55.62;98941.84;4974738;28;19922;-74
2023/02/24 08:02:12;;;;;;;;;;;;;;;13.78;54.78;98937.19;4963847;28;19923;-74
2023/02/24 08:04:40;;;;;;;;;;;;;;;13.89;53.74;98931.84;4966449;28;19932;-75
2023/02/24 08:07:11;;;;;;;;;;;;;;;14.04;52.81;98936.72;4949733;28;19925;-74
2023/02/24 08:10:08;;;;;;;;;;;;;;;14.19;54.01;98939.81;4982806;28;19926;-73
2023/02/24 08:12:33;;;;;;;;;;;;;;;14.35;53.34;98939.28;4971283;28;19921;-74
2023/02/24 08:14:59;;;;;;;;;;;;;;;14.52;51.79;98930.72;4968628;28;19945;-74
2023/02/24 08:17:25;;;;;;;;;;;;;;;14.75;51.01;98933.09;4948541;28;20389;-75
2023/02/24 08:20:07;;;;;;;;;;;;;;;15.11;50.18;98925.44;4990777;28;19922;-72
2023/02/24 08:22:36;;;;;;;;;;;;;;;15.61;49.51;98933.06;4954572;28;19929;-75
2023/02/24 08:25:04;;;;;;;;;;;;;;;15.95;49.54;98926.44;4995673;28;19921;-73
2023/02/24 08:27:30;;;;;;;;;;;;;;;16.27;49.20;98932.06;4984813;28;19928;-75
2023/02/24 08:30:01;;;;;;;;;;;;;;;16.57;51.16;98918.66;4982163;28;20328;-75
2023/02/24 08:32:32;;;;;;;;;;;;;;;17.05;49.55;98924.53;4975431;28;19929;-75
2023/02/24 08:35:02;;;;;;;;;;;;;;;17.30;49.07;98918.44;4965853;28;20297;-75
2023/02/24 08:37:32;;;;;;;;;;;;;;;17.49;47.59;98916.53;4966123;28;19969;-78
2023/02/24 08:39:57;;;;;;;;;;;;;;;17.87;47.04;98907.31;4946560;28;20397;-75
2023/02/24 08:42:29;;;;;;;;;;;;;;;18.25;46.29;98907.78;4967705;28;19957;-81
2023/02/24 08:44:56;;;;;;;;;;;;;;;18.68;44.18;98905.03;4965603;28;20038;-82
2023/02/24 08:47:29;;;;;;;;;;;;;;;18.82;44.52;98895.59;4965559;28;19942;-74
2023/02/24 08:49:58;;;;;;;;;;;;;;;19.10;43.75;98898.75;4950445;28;19975;-76
2023/02/24 08:52:26;;;;;;;;;;;;;;;19.47;42.20;98888.56;4949543;28;20397;-79
2023/02/24 08:54:53;;;;;;;;;;;;;;;20.07;40.27;98892.47;4964516;28;20008;-77
2023/02/24 08:57:19;;;;;;;;;;;;;;;20.34;39.91;98893.78;4958014;28;20377;-76
2023/02/24 08:59:48;;;;;;;;;;;;;;;20.91;38.43;98892.53;4965724;28;19926;-75
2023/02/24 09:02:22;;;;;;;;;;;;;;;21.10;38.30;98893.84;4965298;28;20072;-76
2023/02/24 09:04:48;;;;;;;;;;;;;;;21.31;38.45;98889.66;4949485;28;20309;-74
2023/02/24 09:07:14;;;;;;;;;;;;;;;;;;4982147;28;19922;-78
2023/02/24 09:09:41;;;;;;;;;;;;;;;23.67;33.84;98889.88;4979072;28;19918;-74
2023/02/24 09:12:06;;;;;;;;;;;;;;;25.13;30.37;98887.69;4948723;28;19922;-72
2023/02/24 09:14:38;;;;;;;;;;;;;;;26.45;28.90;98890.09;4951104;28;20328;-75
2023/02/24 09:17:04;;;;;;;;;;;;;;;26.19;29.72;98889.25;4967850;28;19927;-76
2023/02/24 09:19:39;;;;;;;;;;;;;;;26.10;29.10;98885.97;4945739;28;19932;-78
2023/02/24 09:22:13;;;;;;;;;;;;;;;25.66;28.63;98876.09;4969178;28;19964;-75
2023/02/24 09:24:39;;;;;;;;;;;;;;;25.30;29.28;98874.75;4955311;28;19929;-75
2023/02/24 09:27:04;;;;;;;;;;;;;;;25.10;30.27;98873.75;4962181;28;19922;-78
2023/02/24 09:29:33;;;;;;;;;;;;;;;25.25;30.01;98872.69;4941252;28;19922;-77
2023/02/24 09:32:04;;;;;;;;;;;;;;;25.33;29.84;98864.47;4941320;28;19918;-75
2023/02/24 09:34:33;;;;;;;;;;;;;;;25.68;28.16;98863.31;4957830;28;20393;-77
2023/02/24 09:37:01;;;;;;;;;;;;;;;25.86;27.70;98857.31;4956696;28;19977;-76
2023/02/24 09:44:51;;;;;;;;;;;;;;;26.80;26.63;98849.50;4896364;29;19920;-79
2023/02/24 09:47:29;;;;;;;;;;;;;;;26.69;27.23;98840.31;4895874;29;20030;-79
2023/02/24 09:50:15;;;;;;;;;;;;;;;26.67;27.05;98834.38;4896023;29;20018;-79
2023/02/24 09:52:40;;;;;;;;;;;;;;;26.54;30.55;98825.38;4877113;29;20395;-79
2023/02/24 09:55:29;;;;;;;;;;;;;;;26.38;31.48;98831.28;4861176;29;19927;-75
2023/02/24 10:00:50;;;;;;;;;;;;;;;25.82;33.36;98812.28;4821916;29;19921;-76
2023/02/24 10:03:40;;;;;;;;;;;;;;;25.40;33.61;98811.03;4806220;29;19999;-74
2023/02/24 10:06:11;;;;;;;;;;;;;;;25.22;34.43;98799.16;4822071;29;20423;-76
2023/02/24 10:08:37;;;;;;;;;;;;;;;25.14;33.20;98796.69;4822099;29;20046;-73
2023/02/24 10:11:05;;;;;;;;;;;;;;;24.47;35.22;98795.94;4825610;29;20008;-72
2023/02/24 10:13:32;;;;;;;;;;;;;;;24.18;35.74;98780.16;4825271;29;20015;-72
2023/02/24 10:16:04;;;;;;;;;;;;;;;23.95;36.78;98777.84;4824945;29;19920;-73
2023/02/24 10:18:59;;;;;;;;;;;;;;;23.84;37.03;98775.78;4825015;29;19921;-73
2023/02/24 10:21:48;;;;;;;;;;;;;;;24.06;36.46;98770.28;4824895;29;19921;-77
2023/02/24 10:24:13;;;;;;;;;;;;;;;24.16;35.49;98760.03;4824942;29;20030;-79
2023/02/24 10:26:49;;;;;;;;;;;;;;;24.23;35.01;98765.34;4825135;29;20007;-78
2023/02/24 10:29:21;;;;;;;;;;;;;;;24.56;30.90;98757.38;4830194;29;19920;-79
2023/02/24 10:31:56;;;;;;;;;;;;;;;24.39;33.46;98752.44;4843523;29;20381;-77
2023/02/24 10:34:30;;;;;;;;;;;;;;;24.43;32.98;98744.88;4829038;29;20019;-78
2023/02/24 10:36:56;;;;;;;;;;;;;;;24.36;32.60;98736.84;4822423;29;20431;-77
2023/02/24 10:39:24;;;;;;;;;;;;;;;24.17;33.34;98730.50;4899043;29;19923;-77
2023/02/24 10:42:14;;;;;;;;;;;;;;;24.13;33.42;98725.78;4899325;29;19923;-78
2023/02/24 10:44:46;;;;;;;;;;;;;;;24.17;33.87;98727.81;4899189;29;19923;-78
2023/02/24 10:47:16;;;;;;;;;;;;;;;24.32;32.32;98716.13;4898723;29;20373;-76
2023/02/24 10:49:49;;;;;;;;;;;;;;;24.04;33.71;98717.16;4898620;29;19920;-73
2023/02/24 10:52:32;;;;;;;;;;;;;;;23.43;35.14;98712.72;4898608;29;20030;-71
2023/02/24 10:55:26;;;;;;;;;;;;;;;23.54;36.44;98698.81;4899742;29;19931;-85
2023/02/24 10:58:04;;;;;;;;;;;;;;;23.21;35.79;98698.72;4918926;29;19926;-82
2023/02/24 11:00:59;;;;;;;;;;;;;;;23.09;36.59;98690.50;4961080;28;20020;-85
2023/02/24 11:03:46;;;;;;;;;;;;;;;23.37;34.57;98694.88;4968232;28;20025;-86
2023/02/24 11:09:20;;;;;;;;;;;;;;;23.13;36.19;98681.09;4957935;29;19977;-81
2023/02/24 11:17:19;;;;;;;;;;;;;;;22.69;36.86;98667.19;4935944;29;19931;-82
2023/02/24 11:19:44;;;;;;;;;;;;;;;22.48;35.68;98660.09;4936082;29;19923;-82
2023/02/24 11:22:13;;;;;;;;;;;;;;;22.23;37.44;98667.66;4935917;29;19981;-73
2023/02/24 11:24:39;;;;;;;;;;;;;;;22.05;38.76;98657.53;4935827;29;20462;-73
2023/02/24 11:27:04;;;;;;;;;;;;;;;21.86;39.52;98653.69;4935753;29;20042;-72
2023/02/24 11:29:29;;;;;;;;;;;;;;;21.71;40.14;98659.06;4936040;29;19922;-74
2023/02/24 11:32:09;;;;;;;;;;;;;;;21.58;40.03;98648.34;4920917;29;19934;-73
2023/02/24 11:34:48;;;;;;;;;;;;;;;21.40;40.24;98646.94;4916620;29;19927;-73
2023/02/24 11:37:13;;;;;;;;;;;;;;;21.30;40.10;98643.75;4916590;29;20442;-79
2023/02/24 11:39:47;;;;;;;;;;;;;;;21.26;39.47;98637.19;4916730;29;19934;-88
2023/02/24 11:42:14;;;;;;;;;;;;;;;21.24;39.07;98629.41;4918379;29;20422;-78
2023/02/24 11:45:05;;;;;;;;;;;;;;;21.19;40.57;98625.66;4916714;29;19919;-77
2023/02/24 11:47:35;;;;;;;;;;;;;;;21.21;40.59;98631.63;4915616;29;19923;-81
2023/02/24 11:50:16;;;;;;;;;;;;;;;21.33;39.61;98622.13;4917996;29;19930;-85
2023/02/24 11:52:42;;;;;;;;;;;;;;;21.13;38.66;98617.44;4917420;29;19942;-80
2023/02/24 11:55:13;;;;;;;;;;;;;;;21.07;40.38;98618.19;4949249;29;20386;-79
2023/02/24 11:57:40;;;;;;;;;;;;;;;21.06;39.28;98613.06;4970980;28;19923;-78
2023/02/24 12:00:11;;;;;;;;;;;;;;;21.21;38.02;98613.03;4955540;28;20040;-79
2023/02/24 12:02:48;;;;;;;;;;;;;;;21.03;35.25;98608.97;4964890;28;19926;-85
2023/02/24 12:05:15;;;;;;;;;;;;;;;20.64;41.26;98602.19;4991557;28;19922;-76
2023/02/24 12:07:51;;;;;;;;;;;;;;;20.76;41.00;98605.19;4976035;28;19964;-80
2023/02/24 12:10:24;;;;;;;;;;;;;;;20.87;38.87;98591.44;4991236;28;20005;-81
2023/02/24 12:13:09;;;;;;;;;;;;;;;20.91;37.62;98592.72;4974770;28;19973;-80
2023/02/24 12:15:39;;;;;;;;;;;;;;;20.83;36.99;98584.06;4939675;29;20325;-83
2023/02/24 12:18:09;;;;;;;;;;;;;;;20.75;36.74;98583.16;4938937;29;19969;-83
2023/02/24 12:20:42;;;;;;;;;;;;;;;20.57;36.76;98578.22;4938743;29;19918;-83
2023/02/24 12:23:17;;;;;;;;;;;;;;;20.54;36.53;98580.41;4939773;29;19925;-84
2023/02/24 12:25:54;;;;;;;;;;;;;;;20.53;36.55;98579.59;4956194;29;19925;-85
2023/02/24 12:28:20;;;;;;;;;;;;;;;20.48;36.30;98575.84;4955277;29;19918;-82
2023/02/24 12:31:04;;;;;;;;;;;;;;;20.43;36.27;98569.28;4954865;29;19926;-83
2023/02/24 12:33:41;;;;;;;;;;;;;;;20.28;35.92;98576.41;4954467;29;19918;-82
2023/02/24 12:36:42;;;;;;;;;;;;;;;20.26;36.40;98578.44;4938256;29;19925;-83
2023/02/24 12:39:17;;;;;;;;;;;;;;;20.30;35.80;98573.56;4863162;29;19983;-82
2023/02/24 12:41:45;;;;;;;;;;;;;;;20.25;35.72;98563.53;4865519;29;20335;-79
2023/02/24 12:44:22;;;;;;;;;;;;;;;20.00;36.11;98565.63;4863912;29;20002;-81
2023/02/24 12:46:50;;;;;;;;;;;;;;;20.01;35.96;98556.69;4877362;29;19924;-83
2023/02/24 12:49:16;;;;;;;;;;;;;;;19.97;35.87;98555.38;4862599;29;20150;-82
2023/02/24 12:51:42;;;;;;;;;;;;;;;20.01;35.82;98561.97;4879937;29;20499;-83
2023/02/24 12:54:25;;;;;;;;;;;;;;;20.00;35.67;98552.38;4896938;29;19980;-83
2023/02/24 12:57:02;;;;;;;;;;;;;;;19.99;35.68;98546.25;4896755;29;19931;-82
2023/02/24 12:59:29;;;;;;;;;;;;;;;20.03;35.66;98546.72;4881522;29;19919;-82
2023/02/24 13:02:03;;;;;;;;;;;;;;;20.02;35.83;98535.31;4880918;29;19975;-82
2023/02/24 13:04:32;;;;;;;;;;;;;;;20.07;35.79;98537.41;4896937;29;20027;-81
2023/02/24 13:07:08;;;;;;;;;;;;;;;20.09;35.45;98532.75;4897173;29;19959;-81
2023/02/24 13:09:34;;;;;;;;;;;;;;;20.13;35.61;98525.25;4880858;29;19989;-83
2023/02/24 13:12:03;;;;;;;;;;;;;;;20.09;34.96;98527.44;4896614;29;19919;-81
2023/02/24 13:14:33;;;;;;;;;;;;;;;19.82;35.34;98524.41;4919495;28;19918;-83
2023/02/24 13:17:02;;;;;;;;;;;;;;;19.81;35.81;98521.94;4973559;28;19918;-82
2023/02/24 13:19:28;;;;;;;;;;;;;;;19.89;35.73;98519.22;4973759;28;19918;-82
2023/02/24 13:21:59;;;;;;;;;;;;;;;19.96;35.97;98521.97;4973172;28;19926;-80